createdAt,value
2022-11-13T00:00:37.290Z,1022.27
2022-11-13T00:01:37.295Z,1022.24
2022-11-13T00:02:37.392Z,1022.27
2022-11-13T00:03:37.336Z,1022.19
2022-11-13T00:04:37.357Z,1022.24
2022-11-13T00:05:37.376Z,1022.21
2022-11-13T00:06:37.401Z,1022.19
2022-11-13T00:07:37.504Z,1022.20
2022-11-13T00:08:37.447Z,1022.20
2022-11-13T00:09:37.452Z,1022.20
2022-11-13T00:10:37.477Z,1022.16
2022-11-13T00:11:37.493Z,1022.19
2022-11-13T00:12:37.513Z,1022.18
2022-11-13T00:13:37.536Z,1022.17
2022-11-13T00:14:37.554Z,1022.10
2022-11-13T00:15:37.574Z,1022.10
2022-11-13T00:16:37.593Z,1022.10
2022-11-13T00:17:37.609Z,1022.07
2022-11-13T00:18:37.631Z,1022.06
2022-11-13T00:19:37.651Z,1022.06
2022-11-13T00:20:37.669Z,1022.01
2022-11-13T00:21:37.686Z,1022.01
2022-11-13T00:22:37.710Z,1022.02
2022-11-13T00:23:37.822Z,1021.98
2022-11-13T00:24:37.747Z,1021.96
2022-11-13T00:25:37.767Z,1021.95
2022-11-13T00:26:37.787Z,1021.99
2022-11-13T00:27:37.809Z,1021.95
2022-11-13T00:28:37.829Z,1021.99
2022-11-13T00:29:37.847Z,1021.98
2022-11-13T00:30:37.869Z,1022.01
2022-11-13T00:31:37.889Z,1022.00
2022-11-13T00:32:37.909Z,1022.02
2022-11-13T00:34:02.385Z,1021.98
2022-11-13T00:34:53.312Z,1021.96
2022-11-13T00:35:37.962Z,1021.97
2022-11-13T00:36:37.987Z,1021.96
2022-11-13T00:37:37.997Z,1021.96
2022-11-13T00:38:38.023Z,1021.96
2022-11-13T00:39:38.135Z,1021.95
2022-11-13T00:40:38.062Z,1021.98
2022-11-13T00:41:38.080Z,1021.98
2022-11-13T00:42:38.101Z,1021.94
2022-11-13T00:43:38.119Z,1021.95
2022-11-13T00:44:38.141Z,1021.93
2022-11-13T00:45:38.159Z,1021.94
2022-11-13T00:46:38.180Z,1021.93
2022-11-13T00:47:38.204Z,1021.93
2022-11-13T00:48:38.216Z,1021.91
2022-11-13T00:49:38.238Z,1021.93
2022-11-13T00:50:38.256Z,1021.91
2022-11-13T00:51:38.281Z,1021.88
2022-11-13T00:52:38.296Z,1021.89
2022-11-13T00:53:38.317Z,1021.87
2022-11-13T00:54:38.341Z,1021.86
2022-11-13T00:55:38.446Z,1021.85
2022-11-13T00:56:38.373Z,1021.85
2022-11-13T00:57:38.393Z,1021.80
2022-11-13T00:58:38.414Z,1021.82
2022-11-13T00:59:38.431Z,1021.81
2022-11-13T01:00:38.455Z,1021.81
2022-11-13T01:01:38.535Z,1021.83
2022-11-13T01:02:38.491Z,1021.78
2022-11-13T01:03:38.511Z,1021.75
2022-11-13T01:04:38.528Z,1021.80
2022-11-13T01:05:38.549Z,1021.75
2022-11-13T01:06:38.655Z,1021.77
2022-11-13T01:07:38.589Z,1021.78
2022-11-13T01:08:38.608Z,1021.72
2022-11-13T01:09:38.626Z,1021.76
2022-11-13T01:10:38.652Z,1021.74
2022-11-13T01:11:38.759Z,1021.73
2022-11-13T01:12:38.684Z,1021.73
2022-11-13T01:13:38.701Z,1021.72
2022-11-13T01:14:38.726Z,1021.73
2022-11-13T01:15:38.750Z,1021.74
2022-11-13T01:16:38.763Z,1021.79
2022-11-13T01:17:38.783Z,1021.77
2022-11-13T01:18:38.801Z,1021.76
2022-11-13T01:19:38.821Z,1021.76
2022-11-13T01:20:38.844Z,1021.78
2022-11-13T01:21:38.866Z,1021.78
2022-11-13T01:22:38.883Z,1021.82
2022-11-13T01:23:38.915Z,1021.80
2022-11-13T01:24:38.918Z,1021.79
2022-11-13T01:25:38.937Z,1021.78
2022-11-13T01:26:38.956Z,1021.78
2022-11-13T01:27:39.064Z,1021.75
2022-11-13T01:28:38.997Z,1021.74
2022-11-13T01:29:39.015Z,1021.74
2022-11-13T01:30:39.038Z,1021.78
2022-11-13T01:31:39.059Z,1021.76
2022-11-13T01:32:39.074Z,1021.73
2022-11-13T01:33:39.094Z,1021.76
2022-11-13T01:34:39.117Z,1021.75
2022-11-13T01:35:39.132Z,1021.76
2022-11-13T01:36:39.152Z,1021.77
2022-11-13T01:37:39.174Z,1021.76
2022-11-13T01:38:39.275Z,1021.77
2022-11-13T01:39:39.211Z,1021.79
2022-11-13T01:40:39.231Z,1021.79
2022-11-13T01:41:39.249Z,1021.77
2022-11-13T01:42:39.269Z,1021.77
2022-11-13T01:43:39.377Z,1021.76
2022-11-13T01:44:39.309Z,1021.76
2022-11-13T01:45:39.325Z,1021.75
2022-11-13T01:46:39.346Z,1021.73
2022-11-13T01:47:39.364Z,1021.74
2022-11-13T01:48:39.386Z,1021.73
2022-11-13T01:49:39.404Z,1021.75
2022-11-13T01:50:39.427Z,1021.70
2022-11-13T01:51:39.444Z,1021.72
2022-11-13T01:52:39.461Z,1021.71
2022-11-13T01:53:39.483Z,1021.71
2022-11-13T01:54:39.503Z,1021.69
2022-11-13T01:55:39.521Z,1021.64
2022-11-13T01:56:39.541Z,1021.64
2022-11-13T01:57:39.562Z,1021.60
2022-11-13T01:58:39.579Z,1021.54
2022-11-13T01:59:39.687Z,1021.54
2022-11-13T02:00:39.617Z,1021.49
2022-11-13T02:01:39.681Z,1021.47
2022-11-13T02:02:39.659Z,1021.50
2022-11-13T02:03:39.678Z,1021.44
2022-11-13T02:04:39.695Z,1021.44
2022-11-13T02:05:39.713Z,1021.47
2022-11-13T02:06:39.803Z,1021.46
2022-11-13T02:07:39.752Z,1021.45
2022-11-13T02:08:39.771Z,1021.42
2022-11-13T02:09:39.791Z,1021.44
2022-11-13T02:10:39.810Z,1021.41
2022-11-13T02:11:39.829Z,1021.39
2022-11-13T02:12:39.854Z,1021.41
2022-11-13T02:13:39.867Z,1021.39
2022-11-13T02:14:39.890Z,1021.42
2022-11-13T02:15:40.003Z,1021.41
2022-11-13T02:16:39.928Z,1021.40
2022-11-13T02:17:39.956Z,1021.38
2022-11-13T02:18:39.965Z,1021.39
2022-11-13T02:19:40.005Z,1021.41
2022-11-13T02:20:40.003Z,1021.37
2022-11-13T02:21:40.023Z,1021.36
2022-11-13T02:22:40.043Z,1021.37
2022-11-13T02:23:40.060Z,1021.37
2022-11-13T02:24:44.631Z,1021.37
2022-11-13T02:25:40.101Z,1021.34
2022-11-13T02:26:40.116Z,1021.36
2022-11-13T02:27:40.143Z,1021.38
2022-11-13T02:28:40.159Z,1021.34
2022-11-13T02:29:40.182Z,1021.39
2022-11-13T02:30:40.196Z,1021.33
2022-11-13T02:31:40.303Z,1021.33
2022-11-13T02:32:40.234Z,1021.33
2022-11-13T02:33:40.252Z,1021.33
2022-11-13T02:34:40.271Z,1021.36
2022-11-13T02:35:40.292Z,1021.35
2022-11-13T02:36:40.315Z,1021.30
2022-11-13T02:37:40.335Z,1021.33
2022-11-13T02:38:40.353Z,1021.31
2022-11-13T02:39:40.388Z,1021.29
2022-11-13T02:40:40.396Z,1021.26
2022-11-13T02:41:40.408Z,1021.24
2022-11-13T02:42:40.428Z,1021.25
2022-11-13T02:43:40.446Z,1021.26
2022-11-13T02:44:40.465Z,1021.25
2022-11-13T02:45:40.483Z,1021.22
2022-11-13T02:46:40.505Z,1021.20
2022-11-13T02:47:40.611Z,1021.22
2022-11-13T02:48:40.541Z,1021.24
2022-11-13T02:49:40.560Z,1021.22
2022-11-13T02:50:40.581Z,1021.20
2022-11-13T02:51:40.622Z,1021.17
2022-11-13T02:52:40.669Z,1021.20
2022-11-13T02:53:40.634Z,1021.13
2022-11-13T02:54:40.658Z,1021.19
2022-11-13T02:55:40.676Z,1021.14
2022-11-13T02:56:40.697Z,1021.10
2022-11-13T02:57:40.714Z,1021.13
2022-11-13T02:58:40.731Z,1021.10
2022-11-13T02:59:40.752Z,1021.13
2022-11-13T03:00:40.775Z,1021.07
2022-11-13T03:01:40.816Z,1021.13
2022-11-13T03:02:40.816Z,1021.11
2022-11-13T03:03:56.919Z,1021.11
2022-11-13T03:05:10.420Z,1021.10
2022-11-13T03:05:40.877Z,1021.08
2022-11-13T03:06:40.987Z,1021.04
2022-11-13T03:07:40.912Z,1021.03
2022-11-13T03:08:40.986Z,1021.03
2022-11-13T03:09:40.947Z,1020.99
2022-11-13T03:10:40.962Z,1021.02
2022-11-13T03:11:40.986Z,1020.98
2022-11-13T03:12:41.009Z,1021.02
2022-11-13T03:13:41.021Z,1020.98
2022-11-13T03:14:41.037Z,1020.97
2022-11-13T03:15:41.059Z,1020.97
2022-11-13T03:16:41.080Z,1020.95
2022-11-13T03:17:41.096Z,1020.90
2022-11-13T03:18:41.123Z,1020.90
2022-11-13T03:19:41.229Z,1020.89
2022-11-13T03:20:41.162Z,1020.92
2022-11-13T03:21:41.170Z,1020.90
2022-11-13T03:22:41.194Z,1020.88
2022-11-13T03:23:41.221Z,1020.88
2022-11-13T03:24:41.232Z,1020.89
2022-11-13T03:25:41.251Z,1020.86
2022-11-13T03:26:41.269Z,1020.87
2022-11-13T03:27:41.290Z,1020.88
2022-11-13T03:28:41.305Z,1020.85
2022-11-13T03:29:41.325Z,1020.93
2022-11-13T03:30:41.346Z,1020.91
2022-11-13T03:31:41.365Z,1020.87
2022-11-13T03:32:41.382Z,1020.91
2022-11-13T03:33:41.403Z,1020.87
2022-11-13T03:34:41.423Z,1020.86
2022-11-13T03:35:46.539Z,1020.82
2022-11-13T03:36:41.462Z,1020.84
2022-11-13T03:37:41.480Z,1020.82
2022-11-13T03:38:41.502Z,1020.82
2022-11-13T03:39:41.515Z,1020.81
2022-11-13T03:40:41.532Z,1020.82
2022-11-13T03:41:41.551Z,1020.82
2022-11-13T03:42:48.751Z,1020.77
2022-11-13T03:44:46.057Z,1020.73
2022-11-13T03:45:45.778Z,1020.77
2022-11-13T03:47:49.784Z,1020.74
2022-11-13T03:48:49.797Z,1020.75
2022-11-13T03:50:45.608Z,1020.70
2022-11-13T03:51:42.832Z,1020.69
2022-11-13T03:53:46.742Z,1020.68
2022-11-13T03:54:46.748Z,1020.65
2022-11-13T03:56:51.241Z,1020.64
2022-11-13T03:57:50.768Z,1020.64
2022-11-13T03:59:54.784Z,1020.65
2022-11-13T04:00:54.787Z,1020.65
2022-11-13T04:02:59.310Z,1020.61
2022-11-13T04:03:59.002Z,1020.61
2022-11-13T04:05:52.142Z,1020.59
2022-11-13T04:06:52.305Z,1020.61
2022-11-13T04:08:57.137Z,1020.56
2022-11-13T04:09:56.160Z,1020.55
2022-11-13T04:12:01.813Z,1020.59
2022-11-13T04:13:01.193Z,1020.58
2022-11-13T04:15:05.706Z,1020.56
2022-11-13T04:16:05.207Z,1020.57
2022-11-13T04:18:09.217Z,1020.54
2022-11-13T04:19:09.234Z,1020.52
2022-11-13T04:21:02.225Z,1020.54
2022-11-13T04:22:02.259Z,1020.51
2022-11-13T04:24:06.175Z,1020.47
2022-11-13T04:25:06.192Z,1020.45
2022-11-13T04:27:10.681Z,1020.40
2022-11-13T04:28:10.195Z,1020.40
2022-11-13T04:30:14.205Z,1020.43
2022-11-13T04:31:14.239Z,1020.40
2022-11-13T04:33:18.707Z,1020.39
2022-11-13T04:34:18.223Z,1020.37
2022-11-13T04:36:22.234Z,1020.39
2022-11-13T04:37:22.354Z,1020.43
2022-11-13T04:39:26.729Z,1020.39
2022-11-13T04:40:26.254Z,1020.39
2022-11-13T04:42:30.264Z,1020.38
2022-11-13T04:43:30.285Z,1020.38
2022-11-13T04:45:34.759Z,1020.35
2022-11-13T04:46:34.285Z,1020.34
2022-11-13T04:48:38.338Z,1020.29
2022-11-13T04:49:38.295Z,1020.34
2022-11-13T04:51:31.772Z,1020.33
2022-11-13T04:52:31.328Z,1020.29
2022-11-13T04:54:35.242Z,1020.29
2022-11-13T04:55:35.247Z,1020.29
2022-11-13T04:57:39.744Z,1020.30
2022-11-13T04:58:39.258Z,1020.32
2022-11-13T05:00:43.268Z,1020.24
2022-11-13T05:01:43.296Z,1020.22
2022-11-13T05:03:47.768Z,1020.23
2022-11-13T05:04:47.286Z,1020.24
2022-11-13T05:06:51.333Z,1020.20
2022-11-13T05:07:51.393Z,1020.20
2022-11-13T05:09:55.787Z,1020.20
2022-11-13T05:10:55.317Z,1020.19
2022-11-13T05:12:48.445Z,1020.19
2022-11-13T05:13:48.453Z,1020.17
2022-11-13T05:15:52.941Z,1020.18
2022-11-13T05:16:52.465Z,1020.17
2022-11-13T05:18:56.479Z,1020.13
2022-11-13T05:19:56.487Z,1020.15
2022-11-13T05:22:02.471Z,1020.10
2022-11-13T05:23:00.595Z,1020.12
2022-11-13T05:25:04.504Z,1020.12
2022-11-13T05:26:04.510Z,1020.10
2022-11-13T05:28:09.000Z,1020.10
2022-11-13T05:29:08.529Z,1020.07
2022-11-13T05:31:01.447Z,1020.04
2022-11-13T05:32:01.590Z,1020.06
2022-11-13T05:34:06.363Z,1020.05
2022-11-13T05:35:05.473Z,1020.03
2022-11-13T05:37:09.480Z,1020.03
2022-11-13T05:38:09.596Z,1020.03
2022-11-13T05:40:13.979Z,1019.98
2022-11-13T05:41:13.503Z,1019.98
2022-11-13T05:43:17.517Z,1019.97
2022-11-13T05:44:17.512Z,1019.97
2022-11-13T05:46:22.027Z,1020.00
2022-11-13T05:47:21.547Z,1019.96
2022-11-13T05:49:25.554Z,1019.94
2022-11-13T05:50:25.561Z,1019.97
2022-11-13T05:52:30.052Z,1019.92
2022-11-13T05:53:29.665Z,1019.92
2022-11-13T05:55:33.572Z,1019.91
2022-11-13T05:56:33.587Z,1019.87
2022-11-13T05:58:38.084Z,1019.89
2022-11-13T05:59:37.590Z,1019.92
2022-11-13T06:01:30.545Z,1019.94
2022-11-13T06:02:30.527Z,1019.90
2022-11-13T06:04:35.011Z,1019.90
2022-11-13T06:05:34.571Z,1019.88
2022-11-13T06:07:38.550Z,1019.87
2022-11-13T06:08:38.668Z,1019.83
2022-11-13T06:10:43.057Z,1019.81
2022-11-13T06:11:42.568Z,1019.79
2022-11-13T06:13:46.572Z,1019.78
2022-11-13T06:14:46.582Z,1019.81
2022-11-13T06:16:51.082Z,1019.77
2022-11-13T06:17:50.602Z,1019.75
2022-11-13T06:19:54.608Z,1019.77
2022-11-13T06:20:54.610Z,1019.75
2022-11-13T06:22:59.097Z,1019.72
2022-11-13T06:23:58.723Z,1019.69
2022-11-13T06:25:51.749Z,1019.68
2022-11-13T06:26:51.764Z,1019.69
2022-11-13T06:28:56.251Z,1019.67
2022-11-13T06:29:55.778Z,1019.64
2022-11-13T06:31:59.788Z,1019.62
2022-11-13T06:32:59.804Z,1019.60
2022-11-13T06:35:04.280Z,1019.57
2022-11-13T06:36:03.811Z,1019.62
2022-11-13T06:38:07.825Z,1019.58
2022-11-13T06:39:07.984Z,1019.58
2022-11-13T06:41:01.325Z,1019.59
2022-11-13T06:42:00.770Z,1019.56
2022-11-13T06:44:04.780Z,1019.55
2022-11-13T06:45:04.785Z,1019.54
2022-11-13T06:46:58.265Z,1019.48
2022-11-13T06:47:57.929Z,1019.54
2022-11-13T06:50:01.934Z,1019.53
2022-11-13T06:51:01.958Z,1019.51
2022-11-13T06:53:06.438Z,1019.52
2022-11-13T06:54:05.964Z,1019.51
2022-11-13T06:56:10.064Z,1019.48
2022-11-13T06:57:10.034Z,1019.44
2022-11-13T06:59:14.469Z,1019.45
2022-11-13T07:00:13.992Z,1019.46
2022-11-13T07:02:17.999Z,1019.43
2022-11-13T07:03:18.009Z,1019.40
2022-11-13T07:05:22.491Z,1019.46
2022-11-13T07:06:22.052Z,1019.42
2022-11-13T07:08:26.303Z,1019.42
2022-11-13T07:09:26.044Z,1019.46
2022-11-13T07:11:19.613Z,1019.47
2022-11-13T07:12:18.978Z,1019.48
2022-11-13T07:14:23.004Z,1019.47
2022-11-13T07:15:23.007Z,1019.50
2022-11-13T07:17:27.502Z,1019.42
2022-11-13T07:18:27.302Z,1019.45
2022-11-13T07:20:31.056Z,1019.39
2022-11-13T07:21:31.043Z,1019.41
2022-11-13T07:23:36.040Z,1019.40
2022-11-13T07:24:35.549Z,1019.41
2022-11-13T07:25:35.561Z,1019.38
2022-11-13T07:26:35.727Z,1019.37
2022-11-13T07:27:35.708Z,1019.41
2022-11-13T07:28:35.631Z,1019.40
2022-11-13T07:29:35.854Z,1019.40
2022-11-13T07:30:36.706Z,1019.40
2022-11-13T07:31:35.772Z,1019.39
2022-11-13T07:32:36.832Z,1019.39
2022-11-13T07:33:36.570Z,1019.39
2022-11-13T07:35:03.785Z,1019.38
2022-11-13T07:35:37.709Z,1019.36
2022-11-13T07:36:57.620Z,1019.37
2022-11-13T07:39:18.997Z,1019.31
2022-11-13T07:40:18.512Z,1019.35
2022-11-13T07:42:22.613Z,1019.32
2022-11-13T07:43:22.530Z,1019.32
2022-11-13T07:45:27.021Z,1019.22
2022-11-13T07:46:26.546Z,1019.22
2022-11-13T07:48:19.675Z,1019.19
2022-11-13T07:49:19.683Z,1019.20
2022-11-13T07:51:13.153Z,1019.20
2022-11-13T07:52:12.646Z,1019.21
2022-11-13T07:54:16.633Z,1019.25
2022-11-13T07:55:16.636Z,1019.21
2022-11-13T07:57:21.273Z,1019.22
2022-11-13T07:58:20.747Z,1019.22
2022-11-13T08:00:24.665Z,1019.23
2022-11-13T08:01:24.699Z,1019.23
2022-11-13T08:03:29.161Z,1019.23
2022-11-13T08:04:28.687Z,1019.24
2022-11-13T08:06:32.698Z,1019.22
2022-11-13T08:07:32.743Z,1019.18
2022-11-13T08:09:37.197Z,1019.16
2022-11-13T08:10:36.720Z,1019.16
2022-11-13T08:12:40.724Z,1019.15
2022-11-13T08:13:40.826Z,1019.14
2022-11-13T08:15:45.724Z,1019.12
2022-11-13T08:16:44.757Z,1019.10
2022-11-13T08:18:48.797Z,1019.13
2022-11-13T08:19:48.774Z,1019.12
2022-11-13T08:21:53.269Z,1019.11
2022-11-13T08:22:52.809Z,1019.14
2022-11-13T08:24:56.812Z,1019.16
2022-11-13T08:25:56.823Z,1019.13
2022-11-13T08:28:01.809Z,1019.12
2022-11-13T08:29:00.933Z,1019.12
2022-11-13T08:30:53.771Z,1019.13
2022-11-13T08:31:53.781Z,1019.15
2022-11-13T08:33:58.279Z,1019.13
2022-11-13T08:34:57.800Z,1019.12
2022-11-13T08:37:01.815Z,1019.11
2022-11-13T08:38:01.820Z,1019.07
2022-11-13T08:40:06.310Z,1019.09
2022-11-13T08:41:08.905Z,1019.08
2022-11-13T08:43:09.859Z,1019.07
2022-11-13T08:44:09.872Z,1019.06
2022-11-13T08:46:14.347Z,1019.06
2022-11-13T08:47:13.877Z,1019.04
2022-11-13T08:49:17.896Z,1019.02
2022-11-13T08:50:17.905Z,1019.02
2022-11-13T08:52:22.397Z,1019.03
2022-11-13T08:53:21.944Z,1019.01
2022-11-13T08:55:25.960Z,1019.02
2022-11-13T08:56:25.969Z,1018.98
2022-11-13T08:58:19.444Z,1018.98
2022-11-13T08:59:19.213Z,1018.97
2022-11-13T09:01:12.055Z,1018.97
2022-11-13T09:02:12.058Z,1018.98
2022-11-13T09:04:16.552Z,1018.89
2022-11-13T09:05:16.078Z,1018.88
2022-11-13T09:07:24.604Z,1018.87
2022-11-13T09:08:20.100Z,1018.86
2022-11-13T09:10:24.659Z,1018.84
2022-11-13T09:11:24.117Z,1018.85
2022-11-13T09:13:28.122Z,1018.86
2022-11-13T09:14:28.247Z,1018.85
2022-11-13T09:16:32.633Z,1018.86
2022-11-13T09:17:32.185Z,1018.85
2022-11-13T09:19:36.189Z,1018.81
2022-11-13T09:20:36.207Z,1018.84
2022-11-13T09:22:40.693Z,1018.81
2022-11-13T09:23:40.245Z,1018.80
2022-11-13T09:25:44.261Z,1018.79
2022-11-13T09:26:44.287Z,1018.78
2022-11-13T09:28:48.764Z,1018.80
2022-11-13T09:29:54.256Z,1018.77
2022-11-13T09:31:52.298Z,1018.73
2022-11-13T09:32:52.319Z,1018.77
2022-11-13T09:34:56.816Z,1018.71
2022-11-13T09:35:56.349Z,1018.70
2022-11-13T09:38:00.897Z,1018.68
2022-11-13T09:39:00.367Z,1018.67
2022-11-13T09:41:57.764Z,1018.66
2022-11-13T09:42:57.292Z,1018.61
2022-11-13T09:45:03.728Z,1018.61
2022-11-13T09:46:01.354Z,1018.60
2022-11-13T09:48:05.825Z,1018.61
2022-11-13T09:49:05.365Z,1018.58
2022-11-13T09:50:58.804Z,1018.62
2022-11-13T09:52:02.645Z,1018.61
2022-11-13T09:52:58.825Z,1018.57
2022-11-13T09:53:58.849Z,1018.54
2022-11-13T09:54:58.866Z,1018.54
2022-11-13T09:55:58.888Z,1018.51
2022-11-13T09:56:58.909Z,1018.53
2022-11-13T09:57:58.932Z,1018.52
2022-11-13T09:58:58.958Z,1018.54
2022-11-13T09:59:58.979Z,1018.52
2022-11-13T10:00:59.181Z,1018.54
2022-11-13T10:01:59.023Z,1018.54
2022-11-13T10:02:59.040Z,1018.54
2022-11-13T10:04:03.269Z,1018.47
2022-11-13T10:04:59.104Z,1018.49
2022-11-13T10:05:59.123Z,1018.47
2022-11-13T10:06:59.177Z,1018.45
2022-11-13T10:07:59.153Z,1018.45
2022-11-13T10:08:59.218Z,1018.45
2022-11-13T10:09:59.197Z,1018.42
2022-11-13T10:10:59.225Z,1018.41
2022-11-13T10:11:59.246Z,1018.42
2022-11-13T10:12:59.271Z,1018.39
2022-11-13T10:13:59.287Z,1018.37
2022-11-13T10:14:59.313Z,1018.35
2022-11-13T10:15:59.338Z,1018.36
2022-11-13T10:16:59.454Z,1018.35
2022-11-13T10:17:59.383Z,1018.35
2022-11-13T10:18:59.406Z,1018.37
2022-11-13T10:19:59.432Z,1018.35
2022-11-13T10:20:59.452Z,1018.33
2022-11-13T10:22:19.715Z,1018.35
2022-11-13T10:22:59.494Z,1018.35
2022-11-13T10:23:59.513Z,1018.38
2022-11-13T10:24:59.542Z,1018.33
2022-11-13T10:25:59.563Z,1018.31
2022-11-13T10:26:59.588Z,1018.30
2022-11-13T10:27:59.626Z,1018.31
2022-11-13T10:28:59.668Z,1018.31
2022-11-13T10:29:59.668Z,1018.28
2022-11-13T10:30:59.680Z,1018.26
2022-11-13T10:31:59.701Z,1018.28
2022-11-13T10:32:59.824Z,1018.25
2022-11-13T10:33:59.748Z,1018.29
2022-11-13T10:34:59.772Z,1018.23
2022-11-13T10:35:59.794Z,1018.23
2022-11-13T10:36:59.816Z,1018.19
2022-11-13T10:38:03.373Z,1018.20
2022-11-13T10:38:59.862Z,1018.18
2022-11-13T10:39:59.887Z,1018.13
2022-11-13T10:40:59.915Z,1018.12
2022-11-13T10:41:59.935Z,1018.11
2022-11-13T10:42:59.954Z,1018.08
2022-11-13T10:43:59.983Z,1018.03
2022-11-13T10:45:00.021Z,1018.00
2022-11-13T10:46:00.040Z,1017.98
2022-11-13T10:47:00.049Z,1017.97
2022-11-13T10:48:05.021Z,1017.92
2022-11-13T10:49:00.190Z,1017.93
2022-11-13T10:50:00.120Z,1017.93
2022-11-13T10:51:00.142Z,1017.94
2022-11-13T10:52:00.163Z,1017.87
2022-11-13T10:53:00.192Z,1017.86
2022-11-13T10:54:00.210Z,1017.86
2022-11-13T10:55:00.244Z,1017.87
2022-11-13T10:56:00.260Z,1017.84
2022-11-13T10:57:00.404Z,1017.77
2022-11-13T10:58:00.311Z,1017.78
2022-11-13T10:59:00.332Z,1017.76
2022-11-13T11:00:00.358Z,1017.74
2022-11-13T11:01:00.425Z,1017.77
2022-11-13T11:02:00.404Z,1017.71
2022-11-13T11:03:00.423Z,1017.68
2022-11-13T11:04:00.448Z,1017.70
2022-11-13T11:05:00.569Z,1017.69
2022-11-13T11:06:00.493Z,1017.71
2022-11-13T11:08:00.637Z,1017.61
2022-11-13T11:09:00.567Z,1017.58
2022-11-13T11:10:00.593Z,1017.60
2022-11-13T11:11:00.612Z,1017.60
2022-11-13T11:12:00.636Z,1017.59
2022-11-13T11:13:00.666Z,1017.54
2022-11-13T11:14:00.684Z,1017.56
2022-11-13T11:15:00.715Z,1017.51
2022-11-13T11:16:00.747Z,1017.53
2022-11-13T11:17:00.756Z,1017.53
2022-11-13T11:18:00.780Z,1017.50
2022-11-13T11:19:00.801Z,1017.50
2022-11-13T11:20:00.830Z,1017.47
2022-11-13T11:21:00.951Z,1017.46
2022-11-13T11:22:00.874Z,1017.48
2022-11-13T11:23:00.904Z,1017.41
2022-11-13T11:24:00.973Z,1017.43
2022-11-13T11:25:00.952Z,1017.34
2022-11-13T11:26:00.977Z,1017.39
2022-11-13T11:27:01.003Z,1017.36
2022-11-13T11:28:01.025Z,1017.37
2022-11-13T11:29:01.047Z,1017.33
2022-11-13T11:30:01.072Z,1017.31
2022-11-13T11:31:01.098Z,1017.30
2022-11-13T11:32:01.117Z,1017.29
2022-11-13T11:33:01.137Z,1017.30
2022-11-13T11:34:01.182Z,1017.29
2022-11-13T11:35:01.187Z,1017.29
2022-11-13T11:36:01.209Z,1017.33
2022-11-13T11:37:01.327Z,1017.29
2022-11-13T11:38:01.266Z,1017.35
2022-11-13T11:39:01.296Z,1017.36
2022-11-13T11:40:01.308Z,1017.34
2022-11-13T11:41:01.338Z,1017.34
2022-11-13T11:42:01.357Z,1017.33
2022-11-13T11:43:01.383Z,1017.32
2022-11-13T11:44:01.408Z,1017.29
2022-11-13T11:45:01.430Z,1017.28
2022-11-13T11:46:01.463Z,1017.26
2022-11-13T11:47:01.487Z,1017.26
2022-11-13T11:48:01.502Z,1017.23
2022-11-13T11:49:01.532Z,1017.21
2022-11-13T11:50:01.554Z,1017.23
2022-11-13T11:51:01.578Z,1017.21
2022-11-13T11:52:01.600Z,1017.17
2022-11-13T11:53:01.724Z,1017.12
2022-11-13T11:54:01.651Z,1017.14
2022-11-13T11:55:01.676Z,1017.13
2022-11-13T11:56:01.767Z,1017.16
2022-11-13T11:57:01.728Z,1017.13
2022-11-13T11:58:01.749Z,1017.13
2022-11-13T11:59:01.773Z,1017.16
2022-11-13T12:00:01.813Z,1017.10
2022-11-13T12:01:01.825Z,1017.09
2022-11-13T12:02:01.854Z,1017.12
2022-11-13T12:03:01.876Z,1017.12
2022-11-13T12:04:01.896Z,1017.12
2022-11-13T12:05:01.972Z,1017.07
2022-11-13T12:06:01.942Z,1017.05
2022-11-13T12:07:01.989Z,1017.02
2022-11-13T12:08:01.994Z,1017.05
2022-11-13T12:09:02.109Z,1017.05
2022-11-13T12:10:02.038Z,1017.03
2022-11-13T12:11:02.064Z,1016.98
2022-11-13T12:12:02.084Z,1017.05
2022-11-13T12:13:02.112Z,1017.03
2022-11-13T12:14:02.137Z,1017.04
2022-11-13T12:15:02.164Z,1017.05
2022-11-13T12:16:02.183Z,1017.07
2022-11-13T12:17:02.672Z,1017.04
2022-11-13T12:18:02.235Z,1017.03
2022-11-13T12:19:02.262Z,1017.02
2022-11-13T12:20:02.284Z,1017.04
2022-11-13T12:21:02.425Z,1017.02
2022-11-13T12:22:02.332Z,1017.03
2022-11-13T12:23:02.358Z,1016.98
2022-11-13T12:24:02.380Z,1017.00
2022-11-13T12:25:02.499Z,1016.92
2022-11-13T12:26:02.431Z,1016.94
2022-11-13T12:27:02.466Z,1016.93
2022-11-13T12:28:02.480Z,1016.89
2022-11-13T12:29:02.506Z,1016.90
2022-11-13T12:30:02.529Z,1016.93
2022-11-13T12:31:02.550Z,1016.90
2022-11-13T12:32:02.573Z,1016.83
2022-11-13T12:33:02.602Z,1016.84
2022-11-13T12:34:02.637Z,1016.85
2022-11-13T12:35:02.656Z,1016.82
2022-11-13T12:36:02.673Z,1016.83
2022-11-13T12:37:02.817Z,1016.85
2022-11-13T12:38:02.724Z,1016.84
2022-11-13T12:39:02.749Z,1016.86
2022-11-13T12:40:02.771Z,1016.78
2022-11-13T12:41:02.889Z,1016.78
2022-11-13T12:42:02.819Z,1016.78
2022-11-13T12:43:02.846Z,1016.77
2022-11-13T12:44:02.866Z,1016.78
2022-11-13T12:45:02.890Z,1016.79
2022-11-13T12:46:02.916Z,1016.77
2022-11-13T12:47:02.943Z,1016.77
2022-11-13T12:48:02.968Z,1016.75
2022-11-13T12:49:02.994Z,1016.77
2022-11-13T12:50:03.024Z,1016.76
2022-11-13T12:51:03.041Z,1016.71
2022-11-13T12:52:03.065Z,1016.70
2022-11-13T12:53:03.089Z,1016.69
2022-11-13T12:54:03.112Z,1016.70
2022-11-13T12:55:03.138Z,1016.70
2022-11-13T12:56:03.160Z,1016.70
2022-11-13T12:57:03.278Z,1016.67
2022-11-13T12:58:03.212Z,1016.64
2022-11-13T12:59:29.148Z,1016.67
2022-11-13T13:00:03.259Z,1016.60
2022-11-13T13:01:03.314Z,1016.62
2022-11-13T13:02:03.308Z,1016.59
2022-11-13T13:03:03.334Z,1016.60
2022-11-13T13:04:03.356Z,1016.56
2022-11-13T13:05:03.391Z,1016.56
2022-11-13T13:06:03.408Z,1016.49
2022-11-13T13:07:03.482Z,1016.47
2022-11-13T13:08:05.260Z,1016.47
2022-11-13T13:09:03.487Z,1016.47
2022-11-13T13:10:03.532Z,1016.47
2022-11-13T13:11:03.532Z,1016.43
2022-11-13T13:12:03.554Z,1016.39
2022-11-13T13:13:03.668Z,1016.40
2022-11-13T13:14:03.613Z,1016.36
2022-11-13T13:15:03.628Z,1016.39
2022-11-13T13:16:03.657Z,1016.38
2022-11-13T13:17:03.678Z,1016.35
2022-11-13T13:18:03.709Z,1016.34
2022-11-13T13:19:03.726Z,1016.38
2022-11-13T13:20:03.749Z,1016.33
2022-11-13T13:21:03.774Z,1016.31
2022-11-13T13:22:03.802Z,1016.26
2022-11-13T13:23:08.332Z,1016.21
2022-11-13T13:24:03.854Z,1016.25
2022-11-13T13:25:03.874Z,1016.25
2022-11-13T13:26:03.897Z,1016.19
2022-11-13T13:27:03.921Z,1016.20
2022-11-13T13:28:03.956Z,1016.19
2022-11-13T13:29:04.062Z,1016.16
2022-11-13T13:30:03.998Z,1016.14
2022-11-13T13:31:04.019Z,1016.11
2022-11-13T13:32:08.607Z,1016.11
2022-11-13T13:33:04.073Z,1016.07
2022-11-13T13:34:04.095Z,1016.05
2022-11-13T13:35:04.902Z,1016.06
2022-11-13T13:36:04.900Z,1016.05
2022-11-13T13:37:04.905Z,1015.99
2022-11-13T13:38:04.904Z,1015.98
2022-11-13T13:39:04.903Z,1015.96
2022-11-13T13:40:04.242Z,1015.93
2022-11-13T13:41:04.267Z,1015.92
2022-11-13T13:42:04.296Z,1015.86
2022-11-13T13:43:04.319Z,1015.84
2022-11-13T13:44:04.347Z,1015.80
2022-11-13T13:45:04.515Z,1015.82
2022-11-13T13:47:36.588Z,1015.79
2022-11-13T13:48:36.122Z,1015.81
2022-11-13T13:50:40.097Z,1015.75
2022-11-13T13:51:40.109Z,1015.77
2022-11-13T13:53:44.601Z,1015.73
2022-11-13T13:54:44.152Z,1015.69
2022-11-13T13:56:48.174Z,1015.70
2022-11-13T13:57:48.200Z,1015.70
2022-11-13T13:58:48.220Z,1015.71
2022-11-13T13:59:48.248Z,1015.68
2022-11-13T14:01:11.861Z,1015.70
2022-11-13T14:01:48.330Z,1015.65
2022-11-13T14:02:48.314Z,1015.69
2022-11-13T14:03:48.336Z,1015.68
2022-11-13T14:04:48.364Z,1015.63
2022-11-13T14:05:48.392Z,1015.66
2022-11-13T14:06:48.456Z,1015.66
2022-11-13T14:07:48.437Z,1015.68
2022-11-13T14:08:48.464Z,1015.63
2022-11-13T14:09:48.485Z,1015.66
2022-11-13T14:10:48.512Z,1015.65
2022-11-13T14:11:48.534Z,1015.60
2022-11-13T14:12:48.557Z,1015.62
2022-11-13T14:13:48.583Z,1015.61
2022-11-13T14:14:48.612Z,1015.61